General Aviation Weather

Text Reports

Enter one or more of the following location identifiers separated by a space:

Zip Code, Four-Character ICAO or Three-Character IATA airport codes.

METAR - Aviation Routine Weather Report
GOOY - Dakar,
Updated at 11:30 AM GMT on July 30, 2015 (11:30 AM GMT):
METAR GOOY 301130Z 25010KT 9999 SCT008 FEW023TCU SCT130 30/24 Q1013 TEMPO 4000 RA
TAF - Terminal Area Forecast
GOOY - Dakar,
Updated at 11:30 AM GMT on July 30, 2015 (11:30 AM GMT):
TAF GOOY 301130Z 3012/3118 25010KT 9999 SCT008
     PROB40 TEMPO 3012/3015 5000 TSRA BKN008 FEW020CB
     TEMPO 3017/3023 4500 TSRA BKN008 FEW020CB=
TAF AMD KRND 3011/3115 16006KT 9999 BKN007 QNH3006INS
     TEMPO 3011/3014 SCT007
     BECMG 3014/3015 16009KT 9999 FEW040 QNH2999INS
     BECMG 3108/3109 18006KT 9999 SCT010 QNH3004INS TX37/3021Z
     TN24/3011Z AMD 301121=
TAF COR LEBL 301127Z 3012/3112 09012KT 9999 BKN020 TX27/3013Z TN23/3105Z
     TEMPO 3012/3021 FEW018CB BKN020
     BECMG 3018/3020 05005KT
     BECMG 3022/3101 33005KT
     BECMG 3106/3109 09010KT=
Decoded:
ID: GOOY   Dakar/Yoff, SG
REPORT TIME: 30  5:30
VALID TIME: 30 July AT 06:00Z to 31 July AT 12:00Z.
INITIAL WX
   WINDS: 220 AT 10
   CLOUDS: 12 SCT
30% PROBABILITY OF WX 
TEMPORARY WX FROM 18Z TO 22Z
   VISIBILITY: 3.1 MILES
   WEATHER: TSRA
   CLOUDS: 15 BKN
   CLOUDS: 20 FEW WITH CB
   COMMENTS: = 

PIREP - Pilot Weather Report
GOOY - Dakar,
Updated at 11:30 AM GMT on July 30, 2015 (11:30 AM GMT):
No PIREP is currently available for this location.
AIRMET - Airmens Meteorological Information
GOOY - Dakar,
Updated at 11:30 AM GMT on July 30, 2015 (11:30 AM GMT):
No AIRMET is currently available for this location.
SIGMET - Significant Meteorological Information
GOOY - Dakar,
Updated at 11:30 AM GMT on July 30, 2015 (11:30 AM GMT):
No SIGMET is currently available for this location.
NOTAM - Notice to Airmen
GOOY - Dakar,
Updated at 11:30 AM GMT on July 30, 2015 (11:30 AM GMT):
No NOTAM is currently available for this location.
Forecast Area
GOOY - Dakar,
Updated at 11:30 AM GMT on July 30, 2015 (11:30 AM GMT):
No NOTAM is currently available for this location.
Aviation Weather Maps